createdAt,value
2023-03-10T00:00:53.648Z,10.97
2023-03-10T00:01:53.648Z,10.92
2023-03-10T00:02:53.648Z,10.92
2023-03-10T00:03:53.617Z,10.94
2023-03-10T00:04:53.724Z,10.92
2023-03-10T00:05:53.666Z,10.92
2023-03-10T00:06:53.606Z,10.90
2023-03-10T00:07:53.556Z,10.90
2023-03-10T00:08:53.538Z,10.92
2023-03-10T00:09:53.632Z,10.97
2023-03-10T00:10:53.516Z,11.00
2023-03-10T00:11:53.516Z,11.00
2023-03-10T00:12:53.487Z,11.00
2023-03-10T00:13:53.479Z,11.01
2023-03-10T00:14:53.545Z,11.00
2023-03-10T00:15:53.477Z,11.00
2023-03-10T00:16:53.459Z,11.01
2023-03-10T00:17:53.429Z,11.01
2023-03-10T00:18:53.416Z,11.00
2023-03-10T00:19:53.401Z,10.97
2023-03-10T00:20:53.386Z,10.98
2023-03-10T00:21:53.387Z,10.97
2023-03-10T00:22:53.366Z,10.97
2023-03-10T00:23:53.350Z,10.97
2023-03-10T00:24:53.330Z,10.95
2023-03-10T00:25:53.326Z,10.95
2023-03-10T00:26:53.368Z,10.97
2023-03-10T00:27:53.316Z,10.98
2023-03-10T00:28:53.285Z,10.97
2023-03-10T00:29:53.292Z,10.98
2023-03-10T00:30:53.284Z,10.98
2023-03-10T00:31:53.250Z,10.98
2023-03-10T00:32:53.327Z,11.00
2023-03-10T00:33:53.315Z,11.01
2023-03-10T00:34:53.201Z,11.04
2023-03-10T00:35:53.221Z,11.04
2023-03-10T00:36:53.198Z,11.05
2023-03-10T00:37:53.170Z,11.07
2023-03-10T00:38:53.229Z,11.04
2023-03-10T00:39:53.140Z,11.05
2023-03-10T00:40:53.140Z,11.05
2023-03-10T00:41:53.146Z,11.05
2023-03-10T00:42:53.103Z,11.04
2023-03-10T00:43:53.137Z,11.02
2023-03-10T00:44:53.089Z,11.01
2023-03-10T00:45:53.100Z,11.01
2023-03-10T00:46:53.073Z,11.00
2023-03-10T00:47:53.036Z,11.00
2023-03-10T00:48:53.043Z,10.98
2023-03-10T00:49:53.029Z,10.95
2023-03-10T00:50:53.057Z,10.94
2023-03-10T00:51:53.024Z,10.92
2023-03-10T00:52:53.169Z,10.89
2023-03-10T00:53:53.066Z,10.86
2023-03-10T00:54:52.954Z,10.82
2023-03-10T00:55:52.914Z,10.80
2023-03-10T00:56:52.934Z,10.79
2023-03-10T00:57:52.939Z,10.77
2023-03-10T00:58:52.896Z,10.71
2023-03-10T00:59:52.877Z,10.71
2023-03-10T01:00:52.865Z,10.68
2023-03-10T01:01:53.033Z,10.67
2023-03-10T01:02:52.835Z,10.65
2023-03-10T01:03:52.997Z,10.61
2023-03-10T01:04:52.831Z,10.61
2023-03-10T01:05:52.806Z,10.59
2023-03-10T01:06:52.835Z,10.59
2023-03-10T01:07:52.774Z,10.57
2023-03-10T01:08:52.783Z,10.57
2023-03-10T01:09:52.754Z,10.55
2023-03-10T01:10:52.735Z,10.55
2023-03-10T01:11:52.722Z,10.53
2023-03-10T01:12:52.739Z,10.51
2023-03-10T01:13:52.695Z,10.49
2023-03-10T01:14:52.692Z,10.48
2023-03-10T01:15:52.699Z,10.45
2023-03-10T01:16:52.656Z,10.43
2023-03-10T01:17:52.700Z,10.43
2023-03-10T01:18:52.653Z,10.42
2023-03-10T01:19:52.621Z,10.41
2023-03-10T01:20:52.615Z,10.41
2023-03-10T01:21:52.576Z,10.41
2023-03-10T01:22:52.594Z,10.39
2023-03-10T01:23:52.566Z,10.39
2023-03-10T01:24:52.550Z,10.38
2023-03-10T01:25:52.534Z,10.38
2023-03-10T01:26:52.526Z,10.36
2023-03-10T01:27:52.551Z,10.34
2023-03-10T01:28:52.498Z,10.34
2023-03-10T01:29:52.490Z,10.33
2023-03-10T01:30:52.474Z,10.34
2023-03-10T01:31:52.454Z,10.31
2023-03-10T01:32:52.503Z,10.31
2023-03-10T01:33:52.435Z,10.30
2023-03-10T01:34:52.426Z,10.31
2023-03-10T01:35:52.455Z,10.30
2023-03-10T01:36:52.389Z,10.30
2023-03-10T01:37:52.512Z,10.28
2023-03-10T01:38:52.376Z,10.30
2023-03-10T01:39:52.399Z,10.28
2023-03-10T01:40:52.336Z,10.27
2023-03-10T01:41:52.322Z,10.27
2023-03-10T01:42:52.341Z,10.27
2023-03-10T01:43:52.361Z,10.24
2023-03-10T01:44:52.286Z,10.24
2023-03-10T01:45:52.262Z,10.24
2023-03-10T01:46:52.349Z,10.23
2023-03-10T01:47:52.257Z,10.21
2023-03-10T01:48:52.234Z,10.23
2023-03-10T01:49:52.219Z,10.21
2023-03-10T01:50:52.204Z,10.23
2023-03-10T01:51:52.188Z,10.21
2023-03-10T01:52:52.207Z,10.20
2023-03-10T01:53:52.206Z,10.20
2023-03-10T01:54:52.151Z,10.18
2023-03-10T01:55:52.152Z,10.18
2023-03-10T01:56:52.132Z,10.17
2023-03-10T01:57:52.123Z,10.15
2023-03-10T01:58:52.101Z,10.17
2023-03-10T01:59:52.071Z,10.15
2023-03-10T02:00:52.090Z,10.13
2023-03-10T02:01:52.108Z,10.15
2023-03-10T02:02:52.094Z,10.13
2023-03-10T02:03:52.036Z,10.13
2023-03-10T02:04:52.023Z,10.13
2023-03-10T02:05:52.014Z,10.13
2023-03-10T02:06:51.993Z,10.13
2023-03-10T02:07:51.998Z,10.13
2023-03-10T02:08:51.975Z,10.12
2023-03-10T02:09:51.962Z,10.10
2023-03-10T02:10:51.932Z,10.10
2023-03-10T02:12:00.148Z,10.10
2023-03-10T02:12:51.927Z,10.10
2023-03-10T02:13:51.900Z,10.09
2023-03-10T02:14:51.872Z,10.09
2023-03-10T02:15:51.890Z,10.07
2023-03-10T02:16:51.854Z,10.07
2023-03-10T02:17:51.878Z,10.06
2023-03-10T02:18:51.822Z,10.07
2023-03-10T02:19:51.821Z,10.07
2023-03-10T02:20:51.803Z,10.06
2023-03-10T02:21:51.811Z,10.07
2023-03-10T02:22:51.814Z,10.06
2023-03-10T02:24:00.999Z,10.06
2023-03-10T02:24:52.747Z,10.06
2023-03-10T02:25:51.740Z,10.06
2023-03-10T02:26:51.736Z,10.06
2023-03-10T02:27:51.704Z,10.06
2023-03-10T02:28:51.763Z,10.07
2023-03-10T02:29:59.391Z,10.07
2023-03-10T02:30:52.678Z,10.07
2023-03-10T02:31:51.726Z,10.07
2023-03-10T02:32:51.735Z,10.07
2023-03-10T02:33:51.643Z,10.09
2023-03-10T02:34:51.617Z,10.07
2023-03-10T02:35:51.674Z,10.06
2023-03-10T02:36:51.577Z,10.09
2023-03-10T02:37:51.576Z,10.07
2023-03-10T02:38:51.590Z,10.07
2023-03-10T02:39:51.545Z,10.07
2023-03-10T02:40:51.587Z,10.09
2023-03-10T02:41:51.525Z,10.07
2023-03-10T02:42:51.516Z,10.09
2023-03-10T02:43:51.518Z,10.10
2023-03-10T02:44:51.485Z,10.10
2023-03-10T02:45:51.562Z,10.10
2023-03-10T02:46:51.444Z,10.10
2023-03-10T02:47:51.448Z,10.10
2023-03-10T02:48:51.449Z,10.12
2023-03-10T02:49:51.403Z,10.12
2023-03-10T02:50:51.402Z,10.10
2023-03-10T02:51:51.386Z,10.09
2023-03-10T02:52:51.380Z,10.09
2023-03-10T02:53:51.377Z,10.09
2023-03-10T02:54:51.354Z,10.10
2023-03-10T02:55:51.333Z,10.10
2023-03-10T02:56:51.326Z,10.09
2023-03-10T02:57:51.315Z,10.12
2023-03-10T02:58:51.314Z,10.10
2023-03-10T02:59:51.284Z,10.13
2023-03-10T03:00:51.287Z,10.12
2023-03-10T03:01:51.262Z,10.12
2023-03-10T03:02:51.269Z,10.12
2023-03-10T03:03:51.254Z,10.12
2023-03-10T03:04:51.234Z,10.13
2023-03-10T03:05:51.200Z,10.17
2023-03-10T03:06:51.193Z,10.20
2023-03-10T03:07:51.184Z,10.21
2023-03-10T03:08:51.196Z,10.24
2023-03-10T03:09:51.152Z,10.25
2023-03-10T03:10:51.133Z,10.27
2023-03-10T03:11:51.131Z,10.28
2023-03-10T03:12:51.113Z,10.28
2023-03-10T03:13:51.255Z,10.28
2023-03-10T03:14:51.082Z,10.30
2023-03-10T03:15:51.082Z,10.30
2023-03-10T03:16:51.103Z,10.30
2023-03-10T03:17:51.093Z,10.30
2023-03-10T03:18:51.065Z,10.31
2023-03-10T03:19:51.021Z,10.31
2023-03-10T03:20:51.032Z,10.33
2023-03-10T03:21:50.993Z,10.31
2023-03-10T03:22:50.982Z,10.33
2023-03-10T03:23:50.974Z,10.36
2023-03-10T03:24:50.961Z,10.33
2023-03-10T03:25:50.930Z,10.34
2023-03-10T03:26:50.932Z,10.34
2023-03-10T03:27:50.922Z,10.34
2023-03-10T03:28:50.924Z,10.34
2023-03-10T03:29:50.886Z,10.36
2023-03-10T03:30:50.871Z,10.34
2023-03-10T03:31:50.904Z,10.34
2023-03-10T03:32:50.887Z,10.33
2023-03-10T03:33:50.852Z,10.33
2023-03-10T03:34:50.820Z,10.34
2023-03-10T03:35:50.857Z,10.33
2023-03-10T03:36:50.799Z,10.31
2023-03-10T03:37:50.781Z,10.31
2023-03-10T03:38:50.801Z,10.31
2023-03-10T03:39:50.797Z,10.30
2023-03-10T03:40:50.751Z,10.28
2023-03-10T03:41:50.733Z,10.28
2023-03-10T03:42:50.722Z,10.25
2023-03-10T03:43:50.740Z,10.25
2023-03-10T03:44:50.691Z,10.23
2023-03-10T03:45:50.756Z,10.24
2023-03-10T03:46:50.687Z,10.21
2023-03-10T03:47:50.666Z,10.23
2023-03-10T03:48:50.647Z,10.24
2023-03-10T03:49:50.638Z,10.23
2023-03-10T03:50:50.634Z,10.24
2023-03-10T03:51:50.602Z,10.27
2023-03-10T03:52:50.592Z,10.25
2023-03-10T03:53:50.575Z,10.27
2023-03-10T03:54:50.599Z,10.27
2023-03-10T03:55:50.548Z,10.27
2023-03-10T03:56:50.546Z,10.27
2023-03-10T03:57:50.531Z,10.28
2023-03-10T03:58:50.519Z,10.27
2023-03-10T03:59:50.516Z,10.28
2023-03-10T04:00:51.780Z,10.27
2023-03-10T04:01:50.464Z,10.27
2023-03-10T04:02:50.701Z,10.25
2023-03-10T04:03:50.533Z,10.27
2023-03-10T04:04:50.476Z,10.27
2023-03-10T04:05:50.414Z,10.30
2023-03-10T04:06:50.406Z,10.28
2023-03-10T04:07:50.476Z,10.30
2023-03-10T04:08:50.401Z,10.30
2023-03-10T04:09:50.373Z,10.31
2023-03-10T04:10:50.356Z,10.31
2023-03-10T04:11:50.336Z,10.31
2023-03-10T04:12:50.381Z,10.34
2023-03-10T04:13:50.313Z,10.34
2023-03-10T04:14:50.333Z,10.34
2023-03-10T04:15:50.310Z,10.36
2023-03-10T04:16:50.265Z,10.36
2023-03-10T04:17:50.266Z,10.38
2023-03-10T04:18:50.684Z,10.34
2023-03-10T04:20:04.553Z,10.34
2023-03-10T04:20:51.224Z,10.33
2023-03-10T04:21:50.264Z,10.31
2023-03-10T04:22:50.194Z,10.31
2023-03-10T04:23:50.192Z,10.30
2023-03-10T04:24:50.206Z,10.30
2023-03-10T04:25:50.158Z,10.28
2023-03-10T04:26:50.165Z,10.28
2023-03-10T04:27:50.126Z,10.28
2023-03-10T04:28:50.106Z,10.28
2023-03-10T04:29:50.118Z,10.28
2023-03-10T04:30:50.185Z,10.28
2023-03-10T04:32:04.087Z,10.25
2023-03-10T04:32:51.144Z,10.25
2023-03-10T04:33:50.055Z,10.27
2023-03-10T04:34:50.057Z,10.25
2023-03-10T04:35:50.058Z,10.24
2023-03-10T04:36:50.017Z,10.24
2023-03-10T04:37:49.988Z,10.23
2023-03-10T04:38:49.987Z,10.23
2023-03-10T04:39:50.007Z,10.23
2023-03-10T04:40:49.969Z,10.21
2023-03-10T04:41:49.938Z,10.21
2023-03-10T04:42:49.937Z,10.21
2023-03-10T04:43:49.987Z,10.21
2023-03-10T04:44:49.929Z,10.23
2023-03-10T04:45:49.956Z,10.20
2023-03-10T04:46:49.878Z,10.20
2023-03-10T04:47:49.871Z,10.18
2023-03-10T04:48:49.864Z,10.20
2023-03-10T04:49:49.876Z,10.20
2023-03-10T04:50:49.838Z,10.18
2023-03-10T04:51:49.826Z,10.18
2023-03-10T04:52:49.810Z,10.17
2023-03-10T04:53:49.812Z,10.17
2023-03-10T04:54:49.810Z,10.17
2023-03-10T04:55:49.770Z,10.13
2023-03-10T04:56:49.773Z,10.15
2023-03-10T04:57:49.737Z,10.12
2023-03-10T04:58:49.740Z,10.10
2023-03-10T04:59:49.820Z,10.07
2023-03-10T05:01:02.391Z,10.05
2023-03-10T05:01:50.737Z,10.05
2023-03-10T05:02:49.664Z,10.02
2023-03-10T05:03:49.652Z,9.99
2023-03-10T05:04:49.782Z,9.97
2023-03-10T05:05:49.659Z,9.95
2023-03-10T05:06:49.617Z,9.94
2023-03-10T05:07:49.613Z,9.91
2023-03-10T05:08:49.596Z,9.90
2023-03-10T05:09:49.597Z,9.90
2023-03-10T05:10:49.573Z,9.88
2023-03-10T05:11:56.728Z,9.87
2023-03-10T05:12:49.564Z,9.87
2023-03-10T05:13:49.515Z,9.85
2023-03-10T05:14:49.535Z,9.82
2023-03-10T05:15:49.510Z,9.81
2023-03-10T05:16:49.520Z,9.81
2023-03-10T05:17:50.179Z,9.77
2023-03-10T05:18:49.462Z,9.77
2023-03-10T05:19:49.456Z,9.76
2023-03-10T05:20:49.439Z,9.74
2023-03-10T05:21:49.417Z,9.74
2023-03-10T05:22:49.395Z,9.74
2023-03-10T05:23:49.386Z,9.74
2023-03-10T05:24:49.397Z,9.74
2023-03-10T05:25:49.369Z,9.73
2023-03-10T05:26:49.356Z,9.72
2023-03-10T05:27:49.343Z,9.72
2023-03-10T05:28:49.318Z,9.72
2023-03-10T05:29:49.324Z,9.69
2023-03-10T05:30:49.305Z,9.70
2023-03-10T05:31:49.290Z,9.70
2023-03-10T05:32:49.394Z,9.70
2023-03-10T05:33:49.259Z,9.70
2023-03-10T05:34:49.260Z,9.72
2023-03-10T05:35:49.254Z,9.72
2023-03-10T05:36:49.219Z,9.72
2023-03-10T05:37:49.196Z,9.69
2023-03-10T05:38:49.187Z,9.70
2023-03-10T05:39:49.198Z,9.69
2023-03-10T05:40:49.175Z,9.69
2023-03-10T05:41:49.146Z,9.69
2023-03-10T05:42:49.145Z,9.67
2023-03-10T05:43:49.118Z,9.67
2023-03-10T05:44:49.130Z,9.66
2023-03-10T05:45:49.097Z,9.66
2023-03-10T05:46:49.196Z,9.66
2023-03-10T05:47:49.090Z,9.64
2023-03-10T05:48:49.076Z,9.63
2023-03-10T05:49:49.077Z,9.64
2023-03-10T05:50:49.047Z,9.66
2023-03-10T05:51:49.019Z,9.64
2023-03-10T05:52:49.023Z,9.64
2023-03-10T05:53:48.988Z,9.66
2023-03-10T05:54:48.999Z,9.67
2023-03-10T05:55:48.966Z,9.69
2023-03-10T05:56:48.958Z,9.70
2023-03-10T05:57:48.944Z,9.72
2023-03-10T05:58:48.938Z,9.73
2023-03-10T05:59:48.939Z,9.74
2023-03-10T06:00:48.908Z,9.76
2023-03-10T06:01:48.888Z,9.76
2023-03-10T06:02:48.949Z,9.77
2023-03-10T06:03:49.002Z,9.77
2023-03-10T06:04:48.868Z,9.88
2023-03-10T06:05:48.837Z,10.09
2023-03-10T06:06:48.838Z,10.27
2023-03-10T06:07:48.810Z,10.51
2023-03-10T06:08:48.801Z,10.68
2023-03-10T06:09:48.798Z,10.90
2023-03-10T06:10:48.778Z,10.92
2023-03-10T06:11:48.774Z,10.83
2023-03-10T06:12:48.748Z,10.79
2023-03-10T06:13:48.786Z,10.75
2023-03-10T06:14:48.736Z,10.68
2023-03-10T06:15:48.705Z,10.62
2023-03-10T06:16:48.782Z,10.58
2023-03-10T06:17:48.679Z,10.53
2023-03-10T06:18:48.696Z,10.48
2023-03-10T06:19:48.694Z,10.46
2023-03-10T06:20:48.627Z,10.42
2023-03-10T06:21:48.626Z,10.39
2023-03-10T06:22:48.696Z,10.36
2023-03-10T06:23:48.597Z,10.34
2023-03-10T06:24:48.607Z,10.33
2023-03-10T06:25:48.566Z,10.30
2023-03-10T06:26:49.054Z,10.28
2023-03-10T06:27:48.541Z,10.25
2023-03-10T06:28:48.524Z,10.24
2023-03-10T06:29:48.545Z,10.23
2023-03-10T06:30:48.509Z,10.23
2023-03-10T06:31:48.559Z,10.21
2023-03-10T06:32:48.505Z,10.20
2023-03-10T06:33:48.469Z,10.18
2023-03-10T06:34:48.471Z,10.18
2023-03-10T06:35:48.500Z,10.17
2023-03-10T06:36:48.448Z,10.20
2023-03-10T06:37:48.429Z,10.17
2023-03-10T06:38:48.409Z,10.17
2023-03-10T06:39:48.415Z,10.17
2023-03-10T06:40:48.396Z,10.18
2023-03-10T06:41:48.363Z,10.17
2023-03-10T06:42:48.353Z,10.15
2023-03-10T06:43:48.332Z,10.15
2023-03-10T06:44:49.339Z,10.17
2023-03-10T06:45:48.382Z,10.15
2023-03-10T06:46:48.302Z,10.15
2023-03-10T06:47:48.296Z,10.15
2023-03-10T06:48:48.285Z,10.15
2023-03-10T06:49:48.264Z,10.15
2023-03-10T06:50:48.282Z,10.13
2023-03-10T06:51:48.233Z,10.13
2023-03-10T06:52:48.227Z,10.12
2023-03-10T06:53:48.255Z,10.12
2023-03-10T06:54:48.222Z,10.12
2023-03-10T06:55:48.487Z,10.13
2023-03-10T06:56:48.186Z,10.10
2023-03-10T06:57:48.155Z,10.12
2023-03-10T06:58:48.151Z,10.12
2023-03-10T06:59:48.141Z,10.12
2023-03-10T07:00:48.167Z,10.10
2023-03-10T07:01:48.104Z,10.10
2023-03-10T07:02:48.082Z,10.12
2023-03-10T07:03:48.078Z,10.12
2023-03-10T07:04:48.304Z,10.10
2023-03-10T07:05:48.055Z,10.09
2023-03-10T07:06:48.042Z,10.12
2023-03-10T07:07:48.031Z,10.10
2023-03-10T07:08:48.221Z,10.09
2023-03-10T07:09:47.994Z,10.07
2023-03-10T07:10:47.999Z,10.09
2023-03-10T07:11:47.984Z,10.09
2023-03-10T07:12:47.938Z,10.10
2023-03-10T07:13:47.942Z,10.10
2023-03-10T07:14:47.970Z,10.10
2023-03-10T07:15:47.930Z,10.12
2023-03-10T07:16:47.923Z,10.12
2023-03-10T07:17:47.898Z,10.13
2023-03-10T07:18:47.881Z,10.13
2023-03-10T07:19:47.875Z,10.13
2023-03-10T07:20:47.993Z,10.15
2023-03-10T07:21:47.854Z,10.15
2023-03-10T07:22:47.821Z,10.18
2023-03-10T07:23:47.814Z,10.17
2023-03-10T07:24:47.817Z,10.20
2023-03-10T07:25:47.810Z,10.20
2023-03-10T07:26:47.768Z,10.20
2023-03-10T07:27:47.766Z,10.20
2023-03-10T07:28:47.739Z,10.21
2023-03-10T07:29:47.758Z,10.23
2023-03-10T07:30:47.746Z,10.23
2023-03-10T07:31:47.750Z,10.24
2023-03-10T07:32:47.875Z,10.24
2023-03-10T07:33:47.729Z,10.24
2023-03-10T07:34:47.672Z,10.24
2023-03-10T07:35:47.688Z,10.25
2023-03-10T07:36:47.661Z,10.27
2023-03-10T07:37:47.640Z,10.27
2023-03-10T07:38:47.729Z,10.27
2023-03-10T07:39:47.659Z,10.30
2023-03-10T07:40:47.633Z,10.30
2023-03-10T07:41:47.698Z,10.30
2023-03-10T07:42:47.562Z,10.31
2023-03-10T07:43:47.564Z,10.31
2023-03-10T07:44:47.532Z,10.33
2023-03-10T07:45:47.627Z,10.34
2023-03-10T07:46:47.534Z,10.38
2023-03-10T07:47:47.473Z,10.36
2023-03-10T07:48:47.515Z,10.38
2023-03-10T07:49:48.368Z,10.39
2023-03-10T07:50:47.473Z,10.42
2023-03-10T07:51:47.450Z,10.42
2023-03-10T07:52:47.503Z,10.43
2023-03-10T07:53:47.432Z,10.45
2023-03-10T07:54:47.405Z,10.46
2023-03-10T07:55:47.422Z,10.48
2023-03-10T07:56:49.421Z,10.51
2023-03-10T07:57:47.364Z,10.55
2023-03-10T07:58:47.356Z,10.55
2023-03-10T07:59:47.603Z,10.57
2023-03-10T08:00:47.354Z,10.57
2023-03-10T08:01:47.316Z,10.59
2023-03-10T08:02:47.315Z,10.62
2023-03-10T08:03:47.402Z,10.62
2023-03-10T08:04:47.386Z,10.65
2023-03-10T08:05:47.316Z,10.65
2023-03-10T08:06:47.244Z,10.67
2023-03-10T08:07:47.243Z,10.65
2023-03-10T08:08:47.246Z,10.67
2023-03-10T08:09:47.225Z,10.68
2023-03-10T08:10:47.227Z,10.68
2023-03-10T08:11:47.207Z,10.69
2023-03-10T08:12:47.175Z,10.71
2023-03-10T08:13:47.191Z,10.72
2023-03-10T08:14:47.152Z,10.72
2023-03-10T08:15:47.173Z,10.76
2023-03-10T08:16:47.114Z,10.77
2023-03-10T08:17:47.104Z,10.80
2023-03-10T08:18:47.123Z,10.80
2023-03-10T08:19:47.127Z,10.82
2023-03-10T08:20:47.763Z,10.82
2023-03-10T08:21:47.065Z,10.84
2023-03-10T08:22:47.026Z,10.84
2023-03-10T08:23:47.025Z,10.86
2023-03-10T08:24:47.031Z,10.87
2023-03-10T08:25:47.039Z,10.87
2023-03-10T08:26:47.104Z,10.90
2023-03-10T08:27:46.973Z,10.92
2023-03-10T08:28:46.964Z,10.94
2023-03-10T08:29:46.944Z,10.95
2023-03-10T08:31:03.212Z,10.95
2023-03-10T08:31:47.938Z,10.97
2023-03-10T08:32:46.959Z,11.01
2023-03-10T08:33:46.892Z,11.01
2023-03-10T08:34:46.995Z,11.02
2023-03-10T08:35:46.914Z,11.05
2023-03-10T08:36:46.841Z,11.02
2023-03-10T08:37:46.852Z,11.04
2023-03-10T08:38:46.827Z,11.04
2023-03-10T08:39:46.847Z,11.07
2023-03-10T08:40:46.820Z,11.05
2023-03-10T08:41:46.797Z,11.07
2023-03-10T08:42:48.422Z,11.05
2023-03-10T08:43:49.179Z,11.04
2023-03-10T08:44:46.755Z,11.04
2023-03-10T08:45:46.952Z,11.04
2023-03-10T08:46:46.977Z,11.04
2023-03-10T08:47:46.715Z,11.31
2023-03-10T08:48:46.701Z,11.33
2023-03-10T08:49:48.831Z,11.33
2023-03-10T08:50:46.675Z,11.33
2023-03-10T08:51:46.653Z,11.30
2023-03-10T08:52:46.644Z,11.25
2023-03-10T08:53:46.707Z,11.23
2023-03-10T08:54:46.616Z,11.22
2023-03-10T08:55:46.632Z,11.19
2023-03-10T08:56:46.597Z,11.16
2023-03-10T08:57:46.571Z,11.13
2023-03-10T08:58:46.555Z,11.13
2023-03-10T08:59:46.527Z,11.13
2023-03-10T09:00:46.559Z,11.10
2023-03-10T09:01:46.569Z,11.08
2023-03-10T09:02:46.529Z,11.07
2023-03-10T09:03:46.500Z,11.05
2023-03-10T09:04:46.491Z,11.05
2023-03-10T09:05:46.476Z,11.02
2023-03-10T09:06:46.447Z,11.00
2023-03-10T09:07:46.444Z,10.97
2023-03-10T09:08:46.420Z,10.95
2023-03-10T09:09:46.399Z,10.98
2023-03-10T09:10:46.407Z,10.95
2023-03-10T09:11:46.379Z,10.98
2023-03-10T09:12:46.418Z,11.00
2023-03-10T09:13:46.370Z,11.01
2023-03-10T09:14:46.348Z,11.01
2023-03-10T09:15:46.370Z,11.02
2023-03-10T09:16:46.403Z,11.04
2023-03-10T09:17:46.317Z,11.04
2023-03-10T09:18:46.299Z,11.04
2023-03-10T09:19:46.289Z,11.05
2023-03-10T09:20:46.286Z,11.05
2023-03-10T09:21:46.266Z,11.07
2023-03-10T09:22:46.256Z,11.05
2023-03-10T09:23:46.235Z,11.04
2023-03-10T09:24:46.217Z,11.05
2023-03-10T09:25:46.206Z,11.12
2023-03-10T09:26:46.212Z,11.16
2023-03-10T09:27:46.826Z,11.18
2023-03-10T09:28:46.158Z,11.19
2023-03-10T09:30:46.154Z,11.22
2023-03-10T09:31:46.199Z,11.26
2023-03-10T09:32:46.193Z,11.30
2023-03-10T09:33:48.233Z,11.37
2023-03-10T09:34:46.116Z,11.41
2023-03-10T09:35:52.657Z,11.49
2023-03-10T09:36:47.180Z,11.53
2023-03-10T09:37:46.055Z,11.58
2023-03-10T09:38:46.034Z,11.62
2023-03-10T09:39:46.038Z,11.65
2023-03-10T09:40:46.021Z,11.68
2023-03-10T09:41:46.024Z,11.71
2023-03-10T09:42:45.969Z,11.71
2023-03-10T09:43:45.974Z,11.70
2023-03-10T09:44:45.958Z,11.67
2023-03-10T09:45:45.962Z,11.68
2023-03-10T09:46:46.076Z,11.67
2023-03-10T09:47:45.919Z,11.67
2023-03-10T09:48:45.909Z,11.67
2023-03-10T09:49:45.900Z,11.67
2023-03-10T09:50:45.879Z,11.65
2023-03-10T09:51:45.889Z,11.60
2023-03-10T09:52:45.845Z,11.58
2023-03-10T09:53:47.550Z,11.56
2023-03-10T09:54:45.810Z,11.53
2023-03-10T09:55:48.591Z,11.51
2023-03-10T09:56:45.823Z,11.52
2023-03-10T09:57:45.789Z,11.51
2023-03-10T09:58:45.789Z,11.51
2023-03-10T09:59:45.909Z,11.49
2023-03-10T10:00:45.760Z,11.49
2023-03-10T10:01:45.748Z,11.49
2023-03-10T10:02:45.719Z,11.45
2023-03-10T10:03:52.538Z,11.48
2023-03-10T10:04:46.682Z,11.44
2023-03-10T10:05:45.684Z,11.44
2023-03-10T10:06:45.678Z,11.44
2023-03-10T10:07:45.673Z,11.44
2023-03-10T10:08:54.679Z,11.48
2023-03-10T10:09:46.627Z,11.56
2023-03-10T10:10:45.626Z,11.60
2023-03-10T10:11:45.607Z,11.65
2023-03-10T10:12:45.568Z,11.71
2023-03-10T10:13:46.181Z,11.73
2023-03-10T10:14:56.717Z,11.80
2023-03-10T10:15:46.537Z,11.86
2023-03-10T10:16:45.689Z,11.99
2023-03-10T10:17:53.063Z,12.08
2023-03-10T10:18:46.547Z,12.17
2023-03-10T10:19:45.494Z,12.20
2023-03-10T10:20:45.481Z,12.15
2023-03-10T10:21:45.466Z,12.15
2023-03-10T10:22:45.542Z,12.17
2023-03-10T10:23:45.441Z,12.15
2023-03-10T10:24:45.406Z,12.18
2023-03-10T10:25:45.422Z,12.17
2023-03-10T10:26:45.399Z,12.11
2023-03-10T10:27:45.462Z,12.10
2023-03-10T10:28:45.441Z,12.08
2023-03-10T10:29:45.364Z,12.08
2023-03-10T10:30:45.401Z,12.08
2023-03-10T10:31:45.337Z,12.10
2023-03-10T10:32:45.520Z,12.08
2023-03-10T10:33:45.308Z,12.12
2023-03-10T10:34:45.296Z,12.14
2023-03-10T10:35:45.312Z,12.17
2023-03-10T10:36:45.267Z,12.14
2023-03-10T10:37:45.248Z,12.11
2023-03-10T10:38:45.276Z,12.11
2023-03-10T10:39:45.239Z,12.11
2023-03-10T10:40:45.219Z,12.10
2023-03-10T10:41:45.195Z,12.08
2023-03-10T10:42:45.188Z,12.08
2023-03-10T10:43:45.340Z,12.08
2023-03-10T10:44:45.169Z,12.08
2023-03-10T10:45:45.152Z,12.07
2023-03-10T10:46:45.151Z,12.07
2023-03-10T10:47:45.110Z,12.03
2023-03-10T10:48:45.153Z,12.02
2023-03-10T10:49:45.111Z,12.00
2023-03-10T10:50:45.092Z,12.00
2023-03-10T10:51:45.062Z,12.03
2023-03-10T10:52:45.062Z,12.03
2023-03-10T10:53:45.062Z,12.12
2023-03-10T10:54:45.032Z,12.21
2023-03-10T10:55:45.013Z,12.26
2023-03-10T10:56:45.012Z,12.29
2023-03-10T10:57:44.982Z,12.32
2023-03-10T10:58:44.992Z,12.37
2023-03-10T10:59:44.975Z,12.45
2023-03-10T11:00:44.951Z,12.54
2023-03-10T11:01:44.956Z,12.66
2023-03-10T11:02:44.943Z,12.70
2023-03-10T11:03:44.945Z,12.72
2023-03-10T11:04:44.956Z,12.72
2023-03-10T11:05:44.904Z,12.75
2023-03-10T11:06:44.861Z,12.72
2023-03-10T11:07:44.873Z,12.68
2023-03-10T11:08:44.845Z,12.65
2023-03-10T11:09:44.845Z,12.63
2023-03-10T11:10:44.853Z,12.68
2023-03-10T11:11:44.791Z,12.70
2023-03-10T11:12:44.799Z,12.68
2023-03-10T11:13:44.772Z,12.76
2023-03-10T11:14:44.816Z,12.91
2023-03-10T11:15:44.776Z,13.03
2023-03-10T11:16:44.734Z,13.08
2023-03-10T11:17:44.765Z,13.16
2023-03-10T11:18:44.717Z,13.21
2023-03-10T11:19:44.714Z,13.17
2023-03-10T11:20:44.695Z,13.11
2023-03-10T11:21:44.667Z,13.05
2023-03-10T11:22:44.655Z,13.01
2023-03-10T11:23:44.634Z,12.99
2023-03-10T11:24:44.648Z,12.94
2023-03-10T11:25:44.624Z,12.91
2023-03-10T11:27:55.198Z,12.87
2023-03-10T11:28:55.158Z,12.86
2023-03-10T11:29:55.167Z,12.94
2023-03-10T11:30:55.158Z,12.93
2023-03-10T11:31:55.127Z,12.94
2023-03-10T11:32:55.149Z,13.02
2023-03-10T11:33:55.094Z,13.05
2023-03-10T11:34:55.109Z,13.03
2023-03-10T11:35:55.175Z,13.02
2023-03-10T11:36:56.969Z,13.02
2023-03-10T11:37:55.042Z,13.01
2023-03-10T11:38:55.014Z,13.03
2023-03-10T11:39:55.036Z,13.02
2023-03-10T11:40:55.006Z,13.05
2023-03-10T11:41:54.997Z,13.05
2023-03-10T11:42:54.965Z,13.02
2023-03-10T11:43:54.967Z,13.01
2023-03-10T11:44:54.966Z,13.02
2023-03-10T11:45:55.063Z,12.99
2023-03-10T11:46:54.935Z,12.94
2023-03-10T11:47:54.916Z,12.93
2023-03-10T11:48:54.887Z,12.90
2023-03-10T11:49:54.897Z,12.87
2023-03-10T11:50:54.886Z,12.86
2023-03-10T11:51:54.855Z,12.80
2023-03-10T11:52:54.847Z,12.73
2023-03-10T11:53:54.838Z,12.72
2023-03-10T11:54:54.826Z,12.68
2023-03-10T11:55:54.805Z,12.65
2023-03-10T11:56:54.788Z,12.62
2023-03-10T11:57:54.796Z,12.57
2023-03-10T11:58:54.772Z,12.54
2023-03-10T11:59:54.766Z,12.53
2023-03-10T12:00:54.745Z,12.51
2023-03-10T12:01:54.727Z,12.47
2023-03-10T12:02:54.715Z,12.44
2023-03-10T12:03:54.741Z,12.43
2023-03-10T12:04:54.697Z,12.43
2023-03-10T12:05:54.801Z,12.39
2023-03-10T12:06:54.651Z,12.39
2023-03-10T12:07:54.697Z,12.36
2023-03-10T12:08:54.629Z,12.35
2023-03-10T12:09:54.642Z,12.33
2023-03-10T12:10:54.625Z,12.32
2023-03-10T12:11:54.595Z,12.30
2023-03-10T12:12:54.606Z,12.30
2023-03-10T12:13:54.557Z,12.30
2023-03-10T12:14:54.552Z,12.29
2023-03-10T12:15:54.653Z,12.30
2023-03-10T12:16:54.517Z,12.32
2023-03-10T12:17:54.564Z,12.32
2023-03-10T12:18:54.489Z,12.33
2023-03-10T12:19:54.496Z,12.32
2023-03-10T12:20:54.487Z,12.28
2023-03-10T12:21:54.466Z,12.25
2023-03-10T12:22:54.450Z,12.21
2023-03-10T12:23:54.439Z,12.15
2023-03-10T12:24:54.424Z,12.10
2023-03-10T12:25:54.417Z,12.05
2023-03-10T12:26:54.379Z,12.00
2023-03-10T12:27:54.387Z,11.96
2023-03-10T12:28:54.364Z,11.89
2023-03-10T12:29:54.356Z,11.85
2023-03-10T12:30:54.357Z,11.80
2023-03-10T12:31:54.432Z,11.74
2023-03-10T12:32:54.411Z,11.71
2023-03-10T12:33:54.307Z,11.68
2023-03-10T12:34:54.285Z,11.63
2023-03-10T12:35:54.364Z,11.60
2023-03-10T12:36:54.327Z,11.58
2023-03-10T12:37:54.248Z,11.55
2023-03-10T12:38:54.232Z,11.52
2023-03-10T12:39:54.223Z,11.51
2023-03-10T12:40:54.222Z,11.45
2023-03-10T12:41:54.224Z,11.41
2023-03-10T12:42:54.175Z,11.40
2023-03-10T12:43:54.180Z,11.37
2023-03-10T12:44:54.147Z,11.37
2023-03-10T12:45:54.143Z,11.33
2023-03-10T12:46:54.217Z,11.30
2023-03-10T12:47:54.115Z,11.26
2023-03-10T12:48:54.105Z,11.25
2023-03-10T12:49:54.087Z,11.25
2023-03-10T12:50:54.074Z,11.25
2023-03-10T12:51:54.081Z,11.25
2023-03-10T12:52:54.046Z,11.22
2023-03-10T12:53:54.035Z,11.19
2023-03-10T12:54:54.028Z,11.18
2023-03-10T12:55:54.004Z,11.15
2023-03-10T12:56:54.010Z,11.12